Time;durP1;ratioP1;P1;durP2;ratioP2;P2;SDS_P1;SDS_P2;PMS_P1;PMS_P2;Temp;Humidity;BMP_temperature;BMP_pressure;BME280_temperature;BME280_humidity;BME280_pressure;Samples;Min_cycle;Max_cycle;Signal;HPM_P1;HPM_P2
2023/02/13 00:01:08;;;;;;;45.53;15.80;;;;;;;-145.69;100.00;52581.03;5105912;28;20197;-83
2023/02/13 00:03:34;;;;;;;46.10;16.37;;;;;;;-145.69;100.00;52590.94;5113792;28;20200;-83
2023/02/13 00:06:01;;;;;;;38.13;14.20;;;;;;;-145.69;100.00;52618.66;5113824;28;20232;-85
2023/02/13 00:08:29;;;;;;;42.33;15.57;;;;;;;-145.69;100.00;52606.78;5114138;28;20205;-83
2023/02/13 00:10:55;;;;;;;42.40;15.93;;;;;;;-145.69;100.00;52575.09;5113027;28;20652;-83
2023/02/13 00:13:22;;;;;;;44.90;15.53;;;;;;;-145.69;100.00;52614.72;5100576;28;20201;-83
2023/02/13 00:15:55;;;;;;;45.40;15.93;;;;;;;-145.69;100.00;52594.91;5091433;28;20209;-81
2023/02/13 00:18:24;;;;;;;41.40;16.07;;;;;;;-145.69;100.00;52598.84;5093760;28;20196;-82
2023/02/13 00:21:01;;;;;;;39.47;15.10;;;;;;;-145.69;100.00;52583.00;5113409;28;20564;-83
2023/02/13 00:23:30;;;;;;;39.80;15.37;;;;;;;-145.69;100.00;52606.78;5113770;28;20205;-82
2023/02/13 00:25:57;;;;;;;38.27;13.77;;;;;;;-145.69;100.00;52634.50;5096848;28;20250;-83
2023/02/13 00:28:23;;;;;;;36.40;14.03;;;;;;;-145.69;100.00;52622.63;5093484;28;20680;-83
2023/02/13 00:30:52;;;;;;;33.20;12.43;;;;;;;-145.69;100.00;52606.78;5093294;28;20202;-83
2023/02/13 00:33:18;;;;;;;32.10;13.10;;;;;;;-145.69;100.00;52586.97;5093459;28;20285;-83
2023/02/13 00:35:45;;;;;;;30.00;12.17;;;;;;;-145.69;100.00;52628.56;5093119;28;20212;-83
2023/02/13 00:38:11;;;;;;;27.70;10.70;;;;;;;-145.69;100.00;52642.44;5109277;28;20209;-83
2023/02/13 00:40:39;;;;;;;32.40;11.93;;;;;;;-145.69;100.00;52646.41;5098591;28;20208;-83
2023/02/13 00:43:06;;;;;;;34.47;13.70;;;;;;;-145.69;100.00;52577.06;5093135;28;20241;-83
2023/02/13 00:45:32;;;;;;;34.70;13.77;;;;;;;-145.69;100.00;52612.72;5093245;28;20198;-83
2023/02/13 00:47:59;;;;;;;32.37;13.60;;;;;;;-145.69;100.00;52660.25;5093609;28;20201;-83
2023/02/13 00:50:25;;;;;;;31.63;11.27;;;;;;;-145.69;100.00;52626.59;5093481;28;20569;-83
2023/02/13 00:52:52;;;;;;;28.80;10.90;;;;;;;-145.69;100.00;52624.59;5093385;28;20610;-83
2023/02/13 00:55:18;;;;;;;34.37;12.00;;;;;;;-145.69;100.00;52626.59;5092924;28;20201;-83
2023/02/13 00:57:46;;;;;;;34.90;11.43;;;;;;;-145.69;100.00;52638.47;5093358;28;20198;-83
2023/02/13 01:00:14;;;;;;;37.73;12.20;;;;;;;-145.69;100.00;52598.84;5093090;28;20341;-83
2023/02/13 01:02:43;;;;;;;32.17;12.90;;;;;;;-145.69;100.00;52632.53;5094044;28;20195;-84
2023/02/13 01:05:09;;;;;;;38.73;14.33;;;;;;;-145.69;100.00;52586.97;5094239;28;20194;-86
2023/02/13 01:07:36;;;;;;;40.17;13.43;;;;;;;-145.69;100.00;52598.84;5097013;28;20225;-83
2023/02/13 01:10:03;;;;;;;37.93;12.23;;;;;;;-145.69;100.00;52634.50;5096987;28;20205;-83
2023/02/13 01:12:29;;;;;;;31.73;12.03;;;;;;;-145.69;100.00;52594.91;5096803;28;20194;-84
2023/02/13 01:14:57;;;;;;;35.07;12.67;;;;;;;-145.69;100.00;52652.34;5096909;28;20663;-83
2023/02/13 01:17:24;;;;;;;40.97;14.37;;;;;;;-145.69;100.00;52636.50;5096837;28;20645;-83
2023/02/13 01:19:50;;;;;;;38.53;13.23;;;;;;;-145.69;100.00;52662.22;5096641;28;20595;-83
2023/02/13 01:22:17;;;;;;;37.73;11.27;;;;;;;-145.69;100.00;52618.66;5099097;28;20688;-83
2023/02/13 01:24:44;;;;;;;27.20;10.13;;;;;;;-145.69;100.00;52612.72;5113636;28;20194;-83
2023/02/13 01:27:10;;;;;;;28.47;10.33;;;;;;;-145.69;100.00;52606.78;5096565;28;20230;-83
2023/02/13 01:29:36;;;;;;;26.73;9.00;;;;;;;-145.69;100.00;52656.28;5096638;28;20209;-83
2023/02/13 01:32:05;;;;;;;30.30;10.37;;;;;;;-145.69;100.00;52646.41;5096587;28;20194;-83
2023/02/13 01:34:31;;;;;;;23.47;8.80;;;;;;;-145.69;100.00;52624.59;5096500;28;20206;-84
2023/02/13 01:36:58;;;;;;;22.03;7.30;;;;;;;-145.69;100.00;52622.63;5101216;28;20606;-83
2023/02/13 01:39:24;;;;;;;18.30;6.83;;;;;;;-145.69;100.00;52626.59;5116839;28;20200;-82
2023/02/13 01:41:51;;;;;;;15.17;5.60;;;;;;;-145.69;100.00;52614.72;5116524;28;20234;-83
2023/02/13 01:44:50;;;;;;;14.20;6.13;;;;;;;-145.69;100.00;52575.09;5116641;28;20197;-83
2023/02/13 01:47:23;;;;;;;13.87;5.13;;;;;;;-145.69;100.00;52636.50;5116388;28;20315;-82
2023/02/13 01:49:51;;;;;;;12.63;5.03;;;;;;;-145.69;100.00;52616.69;5095814;28;20671;-83
2023/02/13 01:52:18;;;;;;;9.13;4.00;;;;;;;-145.69;100.00;52618.66;5096112;28;20225;-83
2023/02/13 01:54:45;;;;;;;11.30;4.30;;;;;;;-145.69;100.00;52602.81;5094562;28;20198;-83
2023/02/13 01:57:16;;;;;;;9.43;4.73;;;;;;;-145.69;100.00;52604.81;5095800;28;20198;-84
2023/02/13 01:59:51;;;;;;;11.40;4.53;;;;;;;-145.69;100.00;52616.69;5095517;28;20202;-82
2023/02/13 02:02:20;;;;;;;12.70;4.67;;;;;;;-145.69;100.00;52579.06;5113909;28;20197;-82
2023/02/13 02:04:48;;;;;;;9.07;4.37;;;;;;;-145.69;100.00;52622.63;5116156;28;20201;-82
2023/02/13 02:07:20;;;;;;;12.50;4.70;;;;;;;-145.69;100.00;52614.72;5116124;28;20229;-82
2023/02/13 02:09:47;;;;;;;9.67;4.20;;;;;;;-145.69;100.00;52598.84;5108233;28;20198;-82
2023/02/13 02:12:22;;;;;;;10.03;4.27;;;;;;;-145.69;100.00;52614.72;5094924;28;20205;-81
2023/02/13 02:14:49;;;;;;;10.03;4.00;;;;;;;-145.69;100.00;52622.63;5095517;28;20205;-82
2023/02/13 02:17:16;;;;;;;11.63;4.07;;;;;;;-145.69;100.00;52626.59;5094306;28;20202;-82
2023/02/13 02:19:53;;;;;;;8.90;4.30;;;;;;;-145.69;100.00;52606.78;5108797;28;20223;-80
2023/02/13 02:22:42;;;;;;;8.93;3.77;;;;;;;-145.69;100.00;52622.63;5115836;28;20200;-82
2023/02/13 02:25:36;;;;;;;10.70;4.33;;;;;;;-145.69;100.00;52606.78;5109188;28;20229;-83
2023/02/13 02:28:33;;;;;;;8.17;3.87;;;;;;;-145.69;100.00;52626.59;5052638;28;20230;-83
2023/02/13 02:31:41;;;;;;;11.60;4.97;;;;;;;-145.69;100.00;52614.72;5083917;28;20808;-82
2023/02/13 02:34:18;;;;;;;17.57;6.83;;;;;;;-145.69;100.00;52620.66;5094984;28;20206;-82
2023/02/13 02:37:03;;;;;;;14.43;6.50;;;;;;;-145.69;100.00;52616.69;5095147;28;20248;-82
2023/02/13 02:39:40;;;;;;;13.80;6.00;;;;;;;-145.69;100.00;52656.28;5108258;28;20243;-82
2023/02/13 02:42:16;;;;;;;16.47;6.50;;;;;;;-145.69;100.00;52630.53;5115231;28;20233;-82
2023/02/13 02:44:51;;;;;;;19.40;7.33;;;;;;;-145.69;100.00;52634.50;5097249;28;20193;-83
2023/02/13 02:50:31;;;;;;;16.53;6.13;;;;;;;-145.69;100.00;52624.59;5094967;28;20189;-83
2023/02/13 02:53:07;;;;;;;15.07;7.27;;;;;;;-145.69;100.00;52674.13;5093530;28;20676;-83
2023/02/13 02:55:41;;;;;;;20.30;7.20;;;;;;;-145.69;100.00;52612.72;5094279;28;20190;-82
2023/02/13 03:06:38;;;;;;;20.53;6.87;;;;;;;-145.69;100.00;52628.56;5094654;28;20225;-82
2023/02/13 03:14:41;;;;;;;17.03;5.40;;;;;;;-145.69;100.00;52650.34;5114808;28;20200;-81
2023/02/13 03:23:07;;;;;;;18.07;5.83;;;;;;;-145.69;100.00;52616.69;5114656;28;20192;-84
2023/02/13 03:25:40;;;;;;;16.20;5.57;;;;;;;-145.69;100.00;52634.50;5114822;28;20201;-84
2023/02/13 03:31:00;;;;;;;18.50;5.63;;;;;;;-145.69;100.00;52664.22;5080155;28;20231;-82
2023/02/13 03:33:50;;;;;;;22.50;7.07;;;;;;;-145.69;100.00;52644.41;5114252;28;20663;-84
2023/02/13 03:39:21;;;;;;;17.70;5.23;;;;;;;-145.69;100.00;52650.34;5102117;28;20565;-84
2023/02/13 03:41:54;;;;;;;16.70;6.23;;;;;;;-145.69;100.00;52670.16;5092766;28;20225;-84
2023/02/13 03:44:27;;;;;;;20.73;5.03;;;;;;;-145.69;100.00;52660.25;5094240;28;20206;-84
2023/02/13 03:46:58;;;;;;;14.03;4.97;;;;;;;-145.69;100.00;52630.53;5093734;28;20225;-85
2023/02/13 03:52:22;;;;;;;20.17;6.57;;;;;;;-145.69;100.00;52650.34;5114253;28;20721;-84
2023/02/13 04:00:25;;;;;;;22.53;6.40;;;;;;;-145.69;100.00;52648.38;5113078;28;20197;-84
2023/02/13 04:02:58;;;;;;;22.37;6.30;;;;;;;-145.69;100.00;52658.28;5073356;28;20750;-85
2023/02/13 04:05:29;;;;;;;21.33;6.60;;;;;;;-145.69;100.00;52612.72;5073735;28;20206;-84
2023/02/13 04:07:57;;;;;;;26.27;6.57;;;;;;;-145.69;100.00;52658.28;5073423;28;20230;-82
2023/02/13 04:10:26;;;;;;;22.70;6.47;;;;;;;-145.69;100.00;52650.34;5073153;28;20663;-82
2023/02/13 04:13:00;;;;;;;23.63;6.47;;;;;;;-145.69;100.00;52648.38;5075528;28;20202;-84
2023/02/13 04:15:32;;;;;;;25.00;7.83;;;;;;;-145.69;100.00;52678.09;5093462;28;20202;-85
2023/02/13 04:18:06;;;;;;;24.53;6.37;;;;;;;-145.69;100.00;52634.50;5094715;28;20205;-84
2023/02/13 04:20:32;;;;;;;15.33;5.43;;;;;;;-145.69;100.00;52642.44;5093627;28;20209;-84
2023/02/13 04:23:06;;;;;;;24.60;6.10;;;;;;;-145.69;100.00;52614.72;5092894;28;20194;-85
2023/02/13 04:25:33;;;;;;;18.50;5.80;;;;;;;-145.69;100.00;52658.28;5093617;28;20198;-84
2023/02/13 04:28:00;;;;;;;34.87;9.20;;;;;;;-145.69;100.00;52658.28;5093024;28;20226;-84
2023/02/13 04:30:26;;;;;;;41.07;10.60;;;;;;;-145.69;100.00;52658.28;5093167;28;20212;-84
2023/02/13 04:32:55;;;;;;;40.77;10.07;;;;;;;-145.69;100.00;52650.34;5093193;28;20255;-84
2023/02/13 04:35:22;;;;;;;59.03;14.40;;;;;;;-145.69;100.00;52662.22;5092957;28;20538;-83
2023/02/13 04:37:48;;;;;;;39.63;11.57;;;;;;;-145.69;100.00;52642.44;5103106;28;20639;-84
2023/02/13 04:40:17;;;;;;;48.33;12.43;;;;;;;-145.69;100.00;52646.41;5095768;28;20201;-84
2023/02/13 04:42:43;;;;;;;42.73;10.73;;;;;;;-145.69;100.00;52638.47;5097234;28;20582;-83
2023/02/13 04:45:10;;;;;;;46.97;11.90;;;;;;;-145.69;100.00;52622.63;5096868;28;20209;-83
2023/02/13 04:47:36;;;;;;;64.37;15.40;;;;;;;-145.69;100.00;52652.34;5097164;28;20236;-83
2023/02/13 04:50:03;;;;;;;63.87;15.43;;;;;;;-145.69;100.00;52650.34;5097279;28;20241;-83
2023/02/13 04:52:30;;;;;;;60.77;15.07;;;;;;;-145.69;100.00;52664.22;5096890;28;20635;-83
2023/02/13 04:54:56;;;;;;;60.90;15.33;;;;;;;-145.69;100.00;52650.34;5096381;28;20202;-83
2023/02/13 04:57:26;;;;;;;74.97;17.33;;;;;;;-145.69;100.00;52668.19;5097089;28;20213;-84
2023/02/13 04:59:53;;;;;;;88.57;18.47;;;;;;;-145.69;100.00;52658.28;5096324;28;20621;-83
2023/02/13 05:02:19;;;;;;;73.43;17.77;;;;;;;-145.69;100.00;52638.47;5096953;28;20210;-83
2023/02/13 05:04:46;;;;;;;67.73;18.23;;;;;;;-145.69;100.00;52630.53;5096642;28;20198;-84
2023/02/13 05:07:12;;;;;;;90.23;19.67;;;;;;;-145.69;100.00;52652.34;5096306;28;20279;-83
2023/02/13 05:09:39;;;;;;;79.07;18.50;;;;;;;-145.69;100.00;52652.34;5096557;28;20209;-83
2023/02/13 05:12:08;;;;;;;86.87;19.83;;;;;;;-145.69;100.00;52654.31;5096752;28;20233;-83
2023/02/13 05:14:36;;;;;;;92.10;19.67;;;;;;;-145.69;100.00;52646.41;5094734;28;20194;-82
2023/02/13 05:17:03;;;;;;;98.53;22.23;;;;;;;-145.69;100.00;52666.19;5096358;28;20292;-82
2023/02/13 05:19:29;;;;;;;83.17;20.90;;;;;;;-145.69;100.00;52644.41;5096009;28;20203;-83
2023/02/13 05:24:39;;;;;;;86.70;20.17;;;;;;;-145.69;100.00;52662.22;5096875;28;20201;-83
2023/02/13 05:27:06;;;;;;;87.37;21.53;;;;;;;-145.69;100.00;52670.16;5096692;28;20225;-83
2023/02/13 05:29:33;;;;;;;103.17;22.47;;;;;;;-145.69;100.00;52670.16;5095905;28;20198;-82
2023/02/13 05:32:03;;;;;;;97.00;23.17;;;;;;;-145.69;100.00;52658.28;5096189;28;20229;-83
2023/02/13 05:34:30;;;;;;;98.87;22.00;;;;;;;-145.69;100.00;52658.28;5095743;28;20347;-82
2023/02/13 05:36:56;;;;;;;99.30;22.63;;;;;;;-145.69;100.00;52654.31;5096516;28;20202;-83
2023/02/13 05:39:23;;;;;;;91.17;22.00;;;;;;;-145.69;100.00;52636.50;5096130;28;20200;-83
2023/02/13 05:41:53;;;;;;;86.63;20.90;;;;;;;-145.69;100.00;52646.41;5095164;28;20237;-81
2023/02/13 05:44:19;;;;;;;94.47;20.37;;;;;;;-145.69;100.00;52648.38;5096044;28;20202;-83
2023/02/13 05:46:46;;;;;;;81.33;20.40;;;;;;;-145.69;100.00;52646.41;5095681;28;20206;-83
2023/02/13 05:49:15;;;;;;;92.63;21.27;;;;;;;-145.69;100.00;52674.13;5101750;28;20228;-82
2023/02/13 05:51:42;;;;;;;92.83;21.57;;;;;;;-145.69;100.00;52634.50;5115521;28;20288;-83
2023/02/13 05:54:09;;;;;;;94.83;21.53;;;;;;;-145.69;100.00;52622.63;5115625;28;20201;-83
2023/02/13 05:56:35;;;;;;;96.93;20.30;;;;;;;-145.69;100.00;52678.09;5116098;28;20288;-82
2023/02/13 05:59:04;;;;;;;92.43;20.83;;;;;;;-145.69;100.00;52697.88;5115951;28;20208;-82
2023/02/13 06:01:30;;;;;;;100.13;21.77;;;;;;;-145.69;100.00;52622.63;5104191;28;20198;-83
2023/02/13 06:03:58;;;;;;;98.33;20.67;;;;;;;-145.69;100.00;52638.47;5094730;28;20213;-83
2023/02/13 06:06:26;;;;;;;104.17;21.83;;;;;;;-145.69;100.00;52652.34;5099733;28;20190;-83
2023/02/13 06:08:53;;;;;;;85.90;20.07;;;;;;;-145.69;100.00;52646.41;5095247;28;20229;-83
2023/02/13 06:11:20;;;;;;;65.80;18.30;;;;;;;-145.69;100.00;52642.44;5094950;28;20209;-83
2023/02/13 06:13:46;;;;;;;60.13;17.50;;;;;;;-145.69;100.00;52654.31;5095412;28;20198;-83
2023/02/13 06:16:13;;;;;;;60.17;17.17;;;;;;;-145.69;100.00;52636.50;5094760;28;20297;-82
2023/02/13 06:18:40;;;;;;;56.77;16.23;;;;;;;-145.69;100.00;52666.19;5094948;28;20292;-83
2023/02/13 06:21:07;;;;;;;57.97;16.97;;;;;;;-145.69;100.00;52652.34;5093528;28;20238;-83
2023/02/13 06:23:37;;;;;;;76.77;18.97;;;;;;;-145.69;100.00;52678.09;5095410;28;20209;-83
2023/02/13 06:26:04;;;;;;;78.20;19.83;;;;;;;-145.69;100.00;52674.13;5095473;28;20198;-82
2023/02/13 06:28:31;;;;;;;86.67;19.40;;;;;;;-145.69;100.00;52658.28;5094950;28;20237;-83
2023/02/13 06:30:57;;;;;;;86.63;19.93;;;;;;;-145.69;100.00;52674.13;5094797;28;20206;-83
2023/02/13 06:33:26;;;;;;;75.87;19.33;;;;;;;-145.69;100.00;52628.56;5095113;28;20296;-83
2023/02/13 06:35:53;;;;;;;80.00;18.17;;;;;;;-145.69;100.00;52670.16;5094535;28;20247;-84
2023/02/13 06:38:22;;;;;;;79.73;17.47;;;;;;;-145.69;100.00;52656.28;5115078;28;20201;-83
2023/02/13 06:40:51;;;;;;;71.53;18.90;;;;;;;-145.69;100.00;52638.47;5114413;28;20204;-84
2023/02/13 06:43:18;;;;;;;73.07;18.40;;;;;;;-145.69;100.00;52666.19;5114760;28;20706;-83
2023/02/13 06:45:47;;;;;;;76.03;19.10;;;;;;;-145.69;100.00;52668.19;5095790;28;20195;-80
2023/02/13 06:48:16;;;;;;;101.57;22.83;;;;;;;-145.69;100.00;52652.34;5096176;28;20232;-83
2023/02/13 06:50:46;;;;;;;117.10;22.80;;;;;;;-145.69;100.00;52646.41;5114942;28;20197;-83
2023/02/13 06:53:13;;;;;;;102.40;21.63;;;;;;;-145.69;100.00;52662.22;5114722;28;20545;-83
2023/02/13 06:55:39;;;;;;;101.90;23.00;;;;;;;-145.69;100.00;52638.47;5114690;28;20545;-83
2023/02/13 06:58:08;;;;;;;109.90;23.27;;;;;;;-145.69;100.00;52634.50;5114753;28;20721;-83
2023/02/13 07:00:37;;;;;;;98.00;22.20;;;;;;;-145.69;100.00;52618.66;5110661;28;20194;-83
2023/02/13 07:03:08;;;;;;;97.33;22.67;;;;;;;-145.69;100.00;52634.50;5094019;28;20201;-83
2023/02/13 07:05:35;;;;;;;103.17;21.57;;;;;;;-145.69;100.00;52622.63;5098169;28;20651;-83
2023/02/13 07:08:03;;;;;;;97.80;21.73;;;;;;;-145.69;100.00;52654.31;5095767;28;20217;-84
2023/02/13 07:10:29;;;;;;;74.63;19.83;;;;;;;-145.69;100.00;52596.88;5094608;28;20206;-83
2023/02/13 07:13:01;;;;;;;79.87;19.93;;;;;;;-145.69;100.00;52662.22;5093065;28;20223;-83
2023/02/13 07:15:28;;;;;;;92.73;20.67;;;;;;;-145.69;100.00;52648.38;5110492;28;20193;-83
2023/02/13 07:18:01;;;;;;;88.23;22.40;;;;;;;-145.69;100.00;52668.19;5114469;28;20201;-83
2023/02/13 07:20:28;;;;;;;86.77;20.37;;;;;;;-145.69;100.00;52646.41;5114338;28;20261;-83
2023/02/13 07:22:58;;;;;;;71.90;20.00;;;;;;;-145.69;100.00;52638.47;5113909;28;20200;-83
2023/02/13 07:25:25;;;;;;;71.83;18.57;;;;;;;-145.69;100.00;52646.41;5105612;28;20194;-83
2023/02/13 07:27:51;;;;;;;74.60;19.17;;;;;;;-145.69;100.00;52650.34;5094007;28;20226;-83
2023/02/13 07:30:18;;;;;;;79.50;18.70;;;;;;;-145.69;100.00;52660.25;5093786;28;20194;-84
2023/02/13 07:32:46;;;;;;;72.23;18.73;;;;;;;-145.69;100.00;52658.28;5093729;28;20284;-80
2023/02/13 07:35:14;;;;;;;68.13;18.27;;;;;;;-145.69;100.00;52664.22;5094040;28;20290;-83
2023/02/13 07:37:40;;;;;;;68.07;18.10;;;;;;;-145.69;100.00;52658.28;5102855;28;20201;-83
2023/02/13 07:40:08;;;;;;;65.80;17.33;;;;;;;-145.69;100.00;52646.41;5113774;28;20284;-84
2023/02/13 07:42:38;;;;;;;71.03;17.30;;;;;;;-145.69;100.00;52624.59;5113598;28;20233;-83
2023/02/13 07:45:08;;;;;;;60.77;16.80;;;;;;;-145.69;100.00;52646.41;5113784;28;20681;-83
2023/02/13 07:47:36;;;;;;;62.07;16.67;;;;;;;-145.69;100.00;52676.09;5113728;28;20197;-84
2023/02/13 07:50:05;;;;;;;46.97;15.20;;;;;;;-145.69;100.00;52652.34;5104468;28;20194;-82
2023/02/13 07:52:32;;;;;;;57.57;15.40;;;;;;;-145.69;100.00;52658.28;5094236;28;20296;-82
2023/02/13 07:55:00;;;;;;;50.90;16.03;;;;;;;-145.69;100.00;52640.44;5094031;28;20537;-83
2023/02/13 07:57:26;;;;;;;51.40;14.53;;;;;;;-145.69;100.00;52650.34;5093331;28;20657;-82
2023/02/13 07:59:53;;;;;;;46.90;14.57;;;;;;;-145.69;100.00;52650.34;5093174;28;20206;-83
2023/02/13 08:02:22;;;;;;;49.90;15.37;;;;;;;-145.69;100.00;52680.06;5103542;28;20199;-80
2023/02/13 08:04:49;;;;;;;50.43;15.27;;;;;;;-145.69;100.00;52634.50;5113741;28;20205;-83
2023/02/13 08:07:17;;;;;;;55.67;16.83;;;;;;;-145.69;100.00;52618.66;5095440;28;20280;-83
2023/02/13 08:12:31;;;;;;;63.30;15.87;;;;;;;-145.69;100.00;52628.56;5093194;28;20307;-83
2023/02/13 08:14:58;;;;;;;63.60;17.77;;;;;;;-145.69;100.00;52674.13;5092141;28;20675;-83
2023/02/13 08:17:24;;;;;;;59.63;17.40;;;;;;;-145.69;100.00;52636.50;5093200;28;20568;-83
2023/02/13 08:19:52;;;;;;;60.47;17.77;;;;;;;-145.69;100.00;52652.34;5093221;28;20202;-83
2023/02/13 08:22:20;;;;;;;57.93;18.33;;;;;;;-145.69;100.00;52658.28;5093317;28;20293;-83
2023/02/13 08:24:46;;;;;;;53.73;16.70;;;;;;;-145.69;100.00;52644.41;5092838;28;20202;-83
2023/02/13 08:27:14;;;;;;;55.07;16.13;;;;;;;-145.69;100.00;52650.34;5107544;28;20196;-82
2023/02/13 08:29:41;;;;;;;53.60;16.20;;;;;;;-145.69;100.00;52678.09;5113120;28;20229;-83
2023/02/13 08:32:07;;;;;;;56.63;17.33;;;;;;;-145.69;100.00;52682.03;5102249;28;20649;-82
2023/02/13 08:34:34;;;;;;;55.23;16.90;;;;;;;-145.69;100.00;52660.25;5072577;28;20234;-81
2023/02/13 08:37:01;;;;;;;55.00;16.90;;;;;;;-145.69;100.00;52642.44;5102969;28;20731;-83
2023/02/13 08:39:30;;;;;;;49.67;15.90;;;;;;;-145.69;100.00;52634.50;5097570;28;20204;-83
2023/02/13 08:41:57;;;;;;;43.00;15.30;;;;;;;-145.69;100.00;52626.59;5092867;28;20234;-83
2023/02/13 08:44:23;;;;;;;47.40;15.37;;;;;;;-145.69;100.00;52628.56;5094312;28;20198;-84
2023/02/13 08:46:51;;;;;;;41.20;15.40;;;;;;;-145.69;100.00;52638.47;5094490;28;20202;-82
2023/02/13 08:49:18;;;;;;;51.33;15.67;;;;;;;-145.69;100.00;52648.38;5095464;28;20286;-81
2023/02/13 08:51:44;;;;;;;45.70;14.73;;;;;;;-145.69;100.00;52646.41;5100714;28;20652;-81
2023/02/13 08:54:21;;;;;;;33.93;13.53;;;;;;;-145.69;100.00;52612.72;5094449;28;20294;-83
2023/02/13 08:56:49;;;;;;;32.10;13.40;;;;;;;-145.69;100.00;52640.44;5092513;28;20191;-83
2023/02/13 08:59:16;;;;;;;28.80;13.40;;;;;;;-145.69;100.00;52624.59;5093029;28;20201;-84
2023/02/13 09:01:42;;;;;;;35.93;12.57;;;;;;;-145.69;100.00;52640.44;5093965;28;20289;-84
2023/02/13 09:04:10;;;;;;;26.87;10.57;;;;;;;-145.69;100.00;52626.59;5093648;28;20201;-82
2023/02/13 09:06:39;;;;;;;23.03;11.30;;;;;;;-145.69;100.00;52642.44;5110875;28;20194;-82
2023/02/13 09:09:06;;;;;;;25.93;11.97;;;;;;;-145.69;100.00;52650.34;5113263;28;20232;-84
2023/02/13 09:11:32;;;;;;;26.30;10.57;;;;;;;-145.69;100.00;52602.81;5112774;28;20198;-85
2023/02/13 09:14:00;;;;;;;21.53;10.67;;;;;;;-145.69;100.00;52634.50;5113229;28;20193;-85
2023/02/13 09:16:27;;;;;;;22.43;10.77;;;;;;;-145.69;100.00;52620.66;5112836;28;20579;-85
2023/02/13 09:18:53;;;;;;;22.00;10.87;;;;;;;-145.69;100.00;52612.72;5113321;28;20201;-82
2023/02/13 09:21:22;;;;;;;21.07;9.97;;;;;;;-145.69;100.00;52616.69;5114460;28;20202;-82
2023/02/13 09:23:49;;;;;;;25.20;10.47;;;;;;;-145.69;100.00;52616.69;5117372;28;20209;-82
2023/02/13 09:26:17;;;;;;;24.17;10.07;;;;;;;-145.69;100.00;52642.44;5114882;28;20255;-84
2023/02/13 09:28:44;;;;;;;21.57;10.63;;;;;;;-145.69;100.00;52592.91;5104214;28;20710;-82
2023/02/13 09:31:15;;;;;;;22.63;11.30;;;;;;;-145.69;100.00;52622.63;5096432;28;20200;-82
2023/02/13 09:33:42;;;;;;;22.87;10.27;;;;;;;-145.69;100.00;52640.44;5096010;28;20253;-84
2023/02/13 09:36:13;;;;;;;27.33;11.67;;;;;;;-145.69;100.00;52620.66;5102022;28;20197;-84
2023/02/13 09:38:42;;;;;;;23.53;11.20;;;;;;;-145.69;100.00;52618.66;5116539;28;20205;-84
2023/02/13 09:41:13;;;;;;;24.13;11.13;;;;;;;-145.69;100.00;52618.66;5102325;28;20230;-82
2023/02/13 09:43:45;;;;;;;23.47;11.00;;;;;;;-145.69;100.00;52626.59;5094491;28;20226;-82
2023/02/13 09:46:17;;;;;;;21.60;10.30;;;;;;;-145.69;100.00;52638.47;5094010;28;20280;-84
2023/02/13 09:48:48;;;;;;;23.13;9.73;;;;;;;-145.69;100.00;52630.53;5093715;28;20245;-83
2023/02/13 09:51:20;;;;;;;17.57;9.07;;;;;;;-145.69;100.00;52614.72;5093858;28;20343;-81
2023/02/13 09:53:52;;;;;;;18.73;9.50;;;;;;;-145.69;100.00;52664.22;5111056;28;20190;-82
2023/02/13 09:56:23;;;;;;;17.27;8.77;;;;;;;-145.69;100.00;52606.78;5114203;28;20200;-82
2023/02/13 09:58:59;;;;;;;17.47;8.00;;;;;;;-145.69;100.00;52606.78;5114994;28;20211;-82
2023/02/13 10:01:30;;;;;;;15.57;7.57;;;;;;;-145.69;100.00;52614.72;5116597;28;20303;-82
2023/02/13 10:04:17;;;;;;;14.20;7.20;;;;;;;-145.69;100.00;52658.28;5111721;28;20657;-81
2023/02/13 10:06:49;;;;;;;12.93;6.90;;;;;;;-145.69;100.00;52622.63;5097122;28;20238;-84
2023/02/13 10:09:27;;;;;;;14.80;8.10;;;;;;;-145.69;100.00;52600.84;5096275;28;20275;-82
2023/02/13 10:12:13;;;;;;;13.27;7.70;;;;;;;-145.69;100.00;52620.66;5115734;28;20280;-84
2023/02/13 10:14:49;;;;;;;15.10;9.10;;;;;;;-145.69;100.00;52606.78;5114885;28;20817;-81
2023/02/13 10:17:27;;;;;;;17.47;8.83;;;;;;;-145.69;100.00;52598.84;5115927;28;20236;-85
2023/02/13 10:20:00;;;;;;;18.40;7.67;;;;;;;-145.69;100.00;52624.59;5094675;28;20205;-80
2023/02/13 10:22:33;;;;;;;14.57;7.53;;;;;;;-145.69;100.00;52628.56;5095290;28;20290;-80
2023/02/13 10:25:04;;;;;;;14.43;7.67;;;;;;;-145.69;100.00;52622.63;5098200;28;20194;-81
2023/02/13 10:27:35;;;;;;;13.30;7.20;;;;;;;-145.69;100.00;52628.56;5100357;28;20227;-81
2023/02/13 10:30:05;;;;;;;13.50;7.27;;;;;;;-145.69;100.00;52642.44;5100848;28;20226;-81
2023/02/13 10:32:47;;;;;;;14.10;7.33;;;;;;;-145.69;100.00;52581.03;5101127;28;20212;-80
2023/02/13 10:35:22;;;;;;;13.33;7.33;;;;;;;-145.69;100.00;52575.09;5102290;28;20198;-80
2023/02/13 10:37:53;;;;;;;12.50;7.23;;;;;;;-145.69;100.00;52614.72;5112049;28;20655;-82
2023/02/13 10:40:20;;;;;;;13.07;7.13;;;;;;;-145.69;100.00;52585.00;5102634;28;20198;-82
2023/02/13 10:42:57;;;;;;;13.70;7.60;;;;;;;-145.69;100.00;52555.28;5114901;28;20233;-82
2023/02/13 10:45:40;;;;;;;14.23;8.13;;;;;;;-145.69;100.00;52579.06;5103112;28;20197;-80
2023/02/13 10:48:24;;;;;;;14.27;7.53;;;;;;;-145.69;100.00;52573.13;5094820;28;20194;-81
2023/02/13 10:51:00;;;;;;;16.93;8.30;;;;;;;-145.69;100.00;52586.97;5094853;28;20316;-80
2023/02/13 10:53:43;;;;;;;15.40;8.20;;;;;;;-145.69;100.00;52569.16;5115057;28;20193;-84
2023/02/13 10:56:31;;;;;;;19.63;8.80;;;;;;;-145.69;100.00;52598.84;5115355;28;20288;-82
2023/02/13 10:59:24;;;;;;;18.00;9.07;;;;;;;-145.69;100.00;52549.34;5113745;28;20675;-82
2023/02/13 11:01:56;;;;;;;18.40;9.00;;;;;;;-145.69;100.00;52577.06;5094206;28;20198;-82
2023/02/13 11:04:24;;;;;;;16.33;8.37;;;;;;;-145.69;100.00;52581.03;5098598;28;20197;-82
2023/02/13 11:06:56;;;;;;;16.57;8.57;;;;;;;-145.69;100.00;52583.00;5102637;28;20208;-82
2023/02/13 11:09:23;;;;;;;15.40;8.73;;;;;;;-145.69;100.00;52586.97;5114450;28;20236;-83
2023/02/13 11:11:50;;;;;;;17.10;9.20;;;;;;;-145.69;100.00;52579.06;5113366;28;20203;-80
2023/02/13 11:14:18;;;;;;;18.47;9.37;;;;;;;-145.69;100.00;52604.81;5112177;28;20201;-82
2023/02/13 11:16:52;;;;;;;21.17;10.27;;;;;;;-145.69;100.00;52618.66;5102245;28;20186;-82
2023/02/13 11:19:22;;;;;;;16.07;8.50;;;;;;;-145.69;100.00;52559.25;5114713;28;20197;-83
2023/02/13 11:21:56;;;;;;;15.27;8.20;;;;;;;-145.69;100.00;52575.09;5114240;28;20207;-83
2023/02/13 11:24:24;;;;;;;16.10;8.40;;;;;;;-145.69;100.00;52563.22;5109261;28;20190;-82
2023/02/13 11:26:53;;;;;;;16.37;8.30;;;;;;;-145.69;100.00;52586.97;5092964;28;20224;-82
2023/02/13 11:29:25;;;;;;;17.90;9.90;;;;;;;-145.69;100.00;52573.13;5093465;28;20214;-82
2023/02/13 11:32:04;;;;;;;17.47;9.33;;;;;;;-145.69;100.00;52555.28;5093887;28;20398;-84
2023/02/13 11:34:33;;;;;;;15.47;8.07;;;;;;;-145.69;100.00;52594.91;5098997;28;20634;-84
2023/02/13 11:37:24;;;;;;;19.00;9.30;;;;;;;-145.69;100.00;52569.16;5113211;28;20200;-84
2023/02/13 11:39:52;;;;;;;15.77;8.93;;;;;;;-145.69;100.00;52573.13;5114148;28;20660;-82
2023/02/13 11:42:27;;;;;;;15.90;8.50;;;;;;;-145.69;100.00;52598.84;5114017;28;20236;-81
2023/02/13 11:44:57;;;;;;;14.17;7.73;;;;;;;-145.69;100.00;52579.06;5108630;28;20243;-82
2023/02/13 11:47:37;;;;;;;17.50;8.47;;;;;;;-145.69;100.00;52547.38;5093426;28;20217;-82
2023/02/13 11:50:05;;;;;;;14.73;8.20;;;;;;;-145.69;100.00;52549.34;5093050;28;20229;-82
2023/02/13 11:52:35;;;;;;;16.33;9.10;;;;;;;-145.69;100.00;52571.13;5093522;28;20546;-82